Time;durP1;ratioP1;P1;durP2;ratioP2;P2;SDS_P1;SDS_P2;PMS_P1;PMS_P2;Temp;Humidity;BMP_temperature;BMP_pressure;BME280_temperature;BME280_humidity;BME280_pressure;Samples;Min_cycle;Max_cycle;Signal;HPM_P1;HPM_P2
2022/06/17 00:00:41;;;;;;;5.95;2.45;;;;;;;18.37;58.89;100340.88;5090297;28;20031;-30
2022/06/17 00:03:06;;;;;;;7.70;2.95;;;;;;;18.37;59.15;100354.38;5108469;28;20092;-31
2022/06/17 00:05:33;;;;;;;5.07;2.22;;;;;;;18.34;59.67;100353.00;5090412;28;20092;-28
2022/06/17 00:07:58;;;;;;;5.28;2.03;;;;;;;18.12;59.63;100336.97;5109138;28;20118;-31
2022/06/17 00:10:25;;;;;;;4.28;2.50;;;;;;;18.19;60.14;100369.16;5073779;28;20108;-30
2022/06/17 00:12:51;;;;;;;4.80;2.65;;;;;;;17.98;61.35;100370.91;5090717;28;20471;-30
2022/06/17 00:15:18;;;;;;;5.45;2.47;;;;;;;18.11;60.71;100346.16;5090255;28;20034;-30
2022/06/17 00:17:55;;;;;;;4.57;2.42;;;;;;;18.09;61.15;100363.69;5090735;28;20047;-28
2022/06/17 00:20:23;;;;;;;4.55;2.47;;;;;;;17.86;62.03;100360.31;5090280;28;20027;-30
2022/06/17 00:22:49;;;;;;;7.40;2.80;;;;;;;17.83;62.01;100352.72;5090186;28;20066;-28
2022/06/17 00:25:19;;;;;;;5.15;2.70;;;;;;;17.84;61.79;100370.56;5090062;28;20059;-28
2022/06/17 00:27:44;;;;;;;4.90;2.63;;;;;;;17.82;61.50;100356.50;5090232;28;20028;-28
2022/06/17 00:30:22;;;;;;;4.45;2.58;;;;;;;18.08;61.53;100376.34;5108493;28;20034;-28
2022/06/17 00:32:52;;;;;;;4.25;2.28;;;;;;;17.78;62.57;100360.78;5089754;28;20031;-32
2022/06/17 00:35:18;;;;;;;5.28;2.85;;;;;;;17.93;62.06;100370.88;5089676;28;20063;-30
2022/06/17 00:37:44;;;;;;;5.38;2.85;;;;;;;17.86;62.88;100357.63;5089937;28;20477;-28
2022/06/17 00:40:17;;;;;;;3.92;2.95;;;;;;;17.87;63.35;100370.03;5108443;28;20038;-31
2022/06/17 00:42:44;;;;;;;5.40;2.80;;;;;;;18.03;62.61;100360.97;5108160;28;20055;-28
2022/06/17 00:45:34;;;;;;;6.05;3.10;;;;;;;17.89;63.56;100361.69;5107923;28;20035;-33
2022/06/17 00:48:13;;;;;;;5.88;2.90;;;;;;;17.85;63.19;100348.69;5108103;28;20032;-28
2022/06/17 00:50:51;;;;;;;5.03;2.60;;;;;;;17.79;63.72;100351.59;5089558;28;20031;-29
2022/06/17 00:53:21;;;;;;;6.13;2.92;;;;;;;17.81;64.19;100352.97;5089337;28;20023;-28
2022/06/17 00:55:49;;;;;;;4.75;2.90;;;;;;;17.78;64.60;100363.47;5107613;28;20456;-31
2022/06/17 00:58:28;;;;;;;5.10;3.10;;;;;;;17.89;64.81;100357.09;5108114;28;20035;-28
2022/06/17 01:01:00;;;;;;;7.43;3.63;;;;;;;18.15;64.56;100362.66;5107655;28;20384;-30
2022/06/17 01:03:30;;;;;;;4.85;3.00;;;;;;;17.98;64.10;100350.16;5089225;28;20052;-28
2022/06/17 01:06:04;;;;;;;6.55;3.15;;;;;;;17.87;64.73;100372.72;5089227;28;20487;-28
2022/06/17 01:11:24;;;;;;;13.82;3.55;;;;;;;17.44;66.46;100342.19;5107620;28;20088;-28
2022/06/17 01:13:50;;;;;;;7.63;3.22;;;;;;;17.27;68.01;100348.50;5089300;28;20020;-29
2022/06/17 01:16:21;;;;;;;5.05;3.08;;;;;;;17.46;67.08;100367.00;5107817;28;20026;-28
2022/06/17 01:18:48;;;;;;;6.07;3.20;;;;;;;17.44;66.97;100358.34;5107656;28;20081;-30
2022/06/17 01:21:28;;;;;;;6.57;3.10;;;;;;;17.43;66.63;100368.34;5106112;28;20510;-28
2022/06/17 01:23:54;;;;;;;6.75;3.20;;;;;;;17.45;67.40;100351.91;5089139;28;20273;-28
2022/06/17 01:26:20;;;;;;;4.97;3.40;;;;;;;17.29;67.61;100345.56;5088937;28;20027;-31
2022/06/17 01:28:45;;;;;;;6.63;3.80;;;;;;;16.87;69.06;100322.81;5107362;28;20031;-28
2022/06/17 01:31:11;;;;;;;6.93;3.10;;;;;;;17.15;68.87;100355.94;5088443;28;20041;-28
2022/06/17 01:33:40;;;;;;;6.35;3.30;;;;;;;17.18;68.74;100350.06;5088766;28;20023;-29
2022/06/17 01:36:17;;;;;;;8.13;3.33;;;;;;;17.15;68.49;100355.94;5088864;28;20023;-30
2022/06/17 01:38:46;;;;;;;5.85;3.70;;;;;;;17.43;67.58;100356.75;5088803;28;20567;-28
2022/06/17 01:41:14;;;;;;;5.85;3.45;;;;;;;16.95;69.69;100350.38;5106745;28;20096;-28
2022/06/17 01:43:48;;;;;;;5.80;3.28;;;;;;;16.83;70.65;100354.00;5105011;28;20404;-31
2022/06/17 01:46:19;;;;;;;4.35;3.17;;;;;;;16.67;71.38;100347.63;5107046;28;20023;-30
2022/06/17 01:48:53;;;;;;;8.07;3.60;;;;;;;16.62;72.06;100344.06;5107013;28;20027;-29
2022/06/17 01:51:21;;;;;;;6.72;3.83;;;;;;;16.52;72.47;100341.25;5088435;28;20031;-31
2022/06/17 01:53:49;;;;;;;;;;;;;;;16.64;71.23;100336.53;5089048;28;20023;-28
2022/06/17 01:56:18;;;;;;;7.43;3.85;;;;;;;16.51;72.05;100331.53;5106581;28;19918;-29
2022/06/17 01:58:52;;;;;;;7.55;4.18;;;;;;;16.75;71.09;100338.25;5107303;28;20030;-28
2022/06/17 02:01:18;;;;;;;7.55;3.92;;;;;;;16.57;72.23;100330.53;5087877;28;20498;-35
2022/06/17 02:03:52;;;;;;;6.00;3.63;;;;;;;16.63;72.43;100342.97;5088124;28;20074;-30
2022/06/17 02:06:41;;;;;;;7.07;3.40;;;;;;;16.43;73.11;100327.44;5088270;28;20019;-29
2022/06/17 02:09:07;;;;;;;8.63;3.88;;;;;;;16.19;73.31;100311.53;5088155;28;20031;-28
2022/06/17 02:11:33;;;;;;;10.05;4.60;;;;;;;16.28;73.73;100333.41;5106631;28;20407;-30
2022/06/17 02:14:06;;;;;;;8.15;4.50;;;;;;;16.02;74.23;100322.34;5088209;28;20030;-33
2022/06/17 02:16:42;;;;;;;6.30;3.83;;;;;;;16.06;74.25;100346.88;5106608;28;20050;-30
2022/06/17 02:19:09;;;;;;;7.50;4.05;;;;;;;16.09;74.51;100343.69;5105996;28;20414;-32
2022/06/17 02:21:43;;;;;;;9.20;4.20;;;;;;;16.08;74.55;100336.69;5087951;28;20808;-32
2022/06/17 02:24:10;;;;;;;7.88;4.40;;;;;;;16.04;74.89;100347.13;5106301;28;20038;-27
2022/06/17 02:26:38;;;;;;;5.65;4.13;;;;;;;16.11;74.62;100356.88;5087822;28;20124;-31
2022/06/17 02:29:10;;;;;;;8.93;4.18;;;;;;;16.02;75.02;100354.63;5087668;28;20078;-32
2022/06/17 02:31:39;;;;;;;5.72;3.90;;;;;;;15.91;75.77;100347.44;5105708;28;20040;-30
2022/06/17 02:34:05;;;;;;;;;;;;;;;15.80;75.95;100345.69;5087956;28;20406;-28
2022/06/17 02:36:43;;;;;;;8.10;4.00;;;;;;;15.99;74.88;100347.03;5087874;28;19961;-30
2022/06/17 02:39:11;;;;;;;;;;;;;;;16.37;72.88;100345.38;5088244;28;20510;-35
2022/06/17 02:41:38;;;;;;;;;;;;;;;15.97;74.71;100341.09;5106685;28;19915;-31
2022/06/17 02:44:19;;;;;;;10.05;4.03;;;;;;;15.85;75.50;100349.28;5106085;28;19912;-28
2022/06/17 02:46:46;;;;;;;12.10;4.30;;;;;;;15.89;75.32;100349.56;5087695;28;20043;-29
2022/06/17 02:49:20;;;;;;;6.75;4.20;;;;;;;15.91;75.50;100352.84;5087615;28;20701;-30
2022/06/17 02:51:46;;;;;;;11.90;4.65;;;;;;;15.89;75.69;100332.63;5105908;28;20042;-31
2022/06/17 02:54:18;;;;;;;11.68;4.45;;;;;;;15.84;75.21;100330.69;5087450;28;20461;-29
2022/06/17 02:56:49;;;;;;;7.78;4.20;;;;;;;15.83;76.92;100350.56;5109219;28;20241;-28
2022/06/17 02:59:25;;;;;;;9.48;4.70;;;;;;;15.87;76.52;100354.38;5091676;28;20195;-30
2022/06/17 03:01:58;;;;;;;11.13;4.72;;;;;;;15.76;76.07;100323.03;5110214;28;20043;-32
2022/06/17 03:04:30;;;;;;;8.63;4.15;;;;;;;15.71;76.62;100331.81;5091539;28;20131;-28
2022/06/17 03:06:56;;;;;;;9.18;4.15;;;;;;;15.90;76.08;100351.22;5091578;28;20054;-32
2022/06/17 03:09:28;;;;;;;9.80;4.45;;;;;;;15.75;76.30;100334.84;5091352;28;20052;-28
2022/06/17 03:12:06;;;;;;;11.13;3.90;;;;;;;16.31;74.36;100353.66;5091560;28;20020;-32
2022/06/17 03:14:40;;;;;;;8.55;4.38;;;;;;;16.44;73.66;100356.75;5109982;28;20028;-32
2022/06/17 03:17:10;;;;;;;7.43;4.70;;;;;;;16.38;73.27;100341.63;5091048;28;20031;-28
2022/06/17 03:19:37;;;;;;;9.80;4.88;;;;;;;16.08;75.03;100347.44;5091296;28;20031;-30
2022/06/17 03:22:09;;;;;;;9.90;4.85;;;;;;;16.32;74.77;100358.75;5109847;28;20023;-28
2022/06/17 03:24:44;;;;;;;8.40;5.85;;;;;;;16.29;73.92;100358.47;5091640;28;20078;-31
2022/06/17 03:27:28;;;;;;;11.52;6.25;;;;;;;16.83;71.69;100367.47;5091079;28;20036;-29
2022/06/17 03:29:56;;;;;;;10.38;6.30;;;;;;;17.18;70.17;100371.63;5109409;28;20020;-30
2022/06/17 03:32:28;;;;;;;17.17;7.15;;;;;;;16.95;70.39;100380.81;5109552;28;20579;-28
2022/06/17 03:34:55;;;;;;;9.48;5.35;;;;;;;16.94;71.33;100354.09;5090328;28;20494;-28
2022/06/17 03:37:38;;;;;;;8.80;5.32;;;;;;;16.83;71.06;100356.69;5090841;28;20620;-29
2022/06/17 03:40:10;;;;;;;10.18;5.40;;;;;;;16.92;71.46;100369.72;5108820;28;20491;-28
2022/06/17 03:43:00;;;;;;;11.45;5.22;;;;;;;16.83;71.82;100356.69;5090442;28;20028;-30
2022/06/17 03:45:32;;;;;;;10.75;4.90;;;;;;;16.82;72.56;100367.75;5091138;28;20412;-27
2022/06/17 03:48:13;;;;;;;10.23;4.93;;;;;;;16.67;72.08;100344.09;5073894;28;20028;-29
2022/06/17 03:50:45;;;;;;;12.77;5.03;;;;;;;16.81;71.79;100363.41;5107708;28;20543;-31
2022/06/17 03:53:36;;;;;;;8.32;4.63;;;;;;;16.86;72.29;100377.75;5090758;28;20023;-28
2022/06/17 03:56:11;;;;;;;10.40;4.65;;;;;;;16.75;72.60;100378.66;5109360;28;20056;-28
2022/06/17 03:58:38;;;;;;;10.02;5.03;;;;;;;17.05;71.30;100390.88;5090872;28;20487;-35
2022/06/17 04:01:22;;;;;;;9.20;5.13;;;;;;;17.36;69.64;100385.78;5090383;28;20040;-31
2022/06/17 04:03:53;;;;;;;9.32;4.75;;;;;;;17.13;71.13;100390.44;5109064;28;20051;-33
2022/06/17 04:06:23;;;;;;;7.55;4.53;;;;;;;17.31;69.21;100370.38;5108560;28;20514;-28
2022/06/17 04:08:52;;;;;;;7.07;4.78;;;;;;;17.57;68.56;100382.22;5090702;28;20119;-28
2022/06/17 04:11:19;;;;;;;9.45;5.18;;;;;;;17.43;68.92;100389.09;5109126;28;20028;-28
2022/06/17 04:13:45;;;;;;;8.43;5.38;;;;;;;17.26;69.28;100367.63;5073649;28;20027;-28
2022/06/17 04:16:28;;;;;;;7.18;4.47;;;;;;;17.44;68.57;100369.94;5108848;28;20051;-29
2022/06/17 04:19:02;;;;;;;7.22;4.80;;;;;;;17.75;67.88;100389.06;5090620;28;20031;-34
2022/06/17 04:21:27;;;;;;;8.40;5.05;;;;;;;17.64;67.97;100366.59;5090209;28;20046;-31
2022/06/17 04:23:53;;;;;;;8.35;4.80;;;;;;;17.73;69.34;100379.59;5090170;28;20399;-29
2022/06/17 04:26:24;;;;;;;7.85;4.75;;;;;;;18.01;68.15;100382.00;5089937;28;20031;-28
2022/06/17 04:28:55;;;;;;;8.15;5.18;;;;;;;18.21;67.56;100377.81;5090196;28;20177;-31
2022/06/17 04:31:26;;;;;;;8.55;5.60;;;;;;;18.09;66.58;100377.19;5089901;28;20039;-29
2022/06/17 04:33:56;;;;;;;8.85;5.20;;;;;;;17.79;68.39;100375.88;5108391;28;20526;-31
2022/06/17 04:36:44;;;;;;;9.43;5.15;;;;;;;18.20;66.64;100381.56;5108264;28;20032;-29
2022/06/17 04:39:26;;;;;;;8.20;5.30;;;;;;;18.23;66.25;100359.47;5089895;28;20034;-29
2022/06/17 04:41:55;;;;;;;11.13;4.82;;;;;;;18.06;66.80;100370.41;5108388;28;20035;-32
2022/06/17 04:44:20;;;;;;;8.90;5.20;;;;;;;17.86;66.70;100339.53;5108421;28;20042;-28
2022/06/17 04:46:58;;;;;;;10.32;6.65;;;;;;;18.43;66.03;100375.75;5108434;28;20035;-30
2022/06/17 04:49:25;;;;;;;;;;;;;;;18.62;64.18;100378.78;5090318;28;20034;-29
2022/06/17 04:51:58;;;;;;;12.00;6.28;;;;;;;18.65;64.88;100372.88;5108253;28;19911;-29
2022/06/17 04:54:25;;;;;;;20.17;6.88;;;;;;;18.57;65.22;100369.84;5072968;28;20035;-29
2022/06/17 04:56:51;;;;;;;10.25;5.15;;;;;;;18.75;64.27;100372.06;5108286;28;20050;-28
2022/06/17 04:59:25;;;;;;;8.20;5.05;;;;;;;18.78;63.85;100376.16;5107913;28;20901;-28
2022/06/17 05:01:52;;;;;;;6.57;5.13;;;;;;;18.81;65.10;100376.44;5107801;28;20027;-29
2022/06/17 05:04:18;;;;;;;7.47;4.97;;;;;;;18.85;64.67;100366.72;5089580;28;20082;-30
2022/06/17 05:06:43;;;;;;;11.27;5.47;;;;;;;18.91;63.01;100385.66;5108011;28;20050;-30
2022/06/17 05:09:31;;;;;;;9.90;6.03;;;;;;;19.07;62.84;100381.91;5108263;28;20462;-30
2022/06/17 05:12:05;;;;;;;8.63;6.00;;;;;;;19.12;61.52;100368.38;5107789;28;20020;-28
2022/06/17 05:14:40;;;;;;;10.93;5.00;;;;;;;19.40;61.45;100385.19;5089576;28;20571;-29
2022/06/17 05:17:05;;;;;;;12.80;5.57;;;;;;;19.44;61.18;100378.16;5107896;28;20023;-29
2022/06/17 05:19:31;;;;;;;8.13;5.00;;;;;;;19.67;60.07;100377.59;5107042;28;20034;-28
2022/06/17 05:21:57;;;;;;;7.45;4.93;;;;;;;19.74;61.27;100379.28;5089251;28;20460;-28
2022/06/17 05:24:23;;;;;;;9.02;5.10;;;;;;;19.94;59.01;100375.72;5107971;28;20040;-29
2022/06/17 05:26:51;;;;;;;8.27;5.43;;;;;;;19.92;59.65;100373.31;5107462;28;20034;-29
2022/06/17 05:29:16;;;;;;;;;;;;;;;19.91;60.72;100377.06;5089423;28;20039;-28
2022/06/17 05:31:41;;;;;;;11.55;5.10;;;;;;;20.22;59.76;100393.25;5107666;28;20788;-29
2022/06/17 05:34:07;;;;;;;10.93;5.82;;;;;;;19.90;60.03;100380.88;5107647;28;20522;-29
2022/06/17 05:36:32;;;;;;;8.10;5.55;;;;;;;20.11;59.38;100375.44;5107527;28;20024;-28
2022/06/17 05:38:58;;;;;;;14.15;5.93;;;;;;;20.46;58.56;100367.16;5088890;28;20063;-31
2022/06/17 05:41:24;;;;;;;7.57;5.38;;;;;;;20.34;59.44;100374.78;5088488;28;20028;-32
2022/06/17 05:43:51;;;;;;;10.98;6.55;;;;;;;20.30;57.62;100373.72;5107184;28;20080;-30
2022/06/17 05:46:17;;;;;;;10.55;6.32;;;;;;;20.67;56.40;100373.31;5088960;28;20106;-28
2022/06/17 05:48:43;;;;;;;9.95;6.28;;;;;;;20.69;56.45;100366.81;5088540;28;20484;-28
2022/06/17 05:51:10;;;;;;;10.50;6.10;;;;;;;20.50;55.62;100351.16;5106969;28;20096;-28
2022/06/17 05:53:36;;;;;;;10.00;6.13;;;;;;;20.74;56.67;100361.38;5088421;28;20110;-31
2022/06/17 05:56:01;;;;;;;9.00;5.93;;;;;;;20.92;55.97;100352.59;5088491;28;20384;-27
2022/06/17 05:58:27;;;;;;;6.80;5.30;;;;;;;21.04;55.06;100365.81;5088609;28;20035;-30
2022/06/17 06:00:52;;;;;;;9.25;5.22;;;;;;;21.02;54.51;100351.72;5088326;28;20165;-28
2022/06/17 06:03:21;;;;;;;8.25;5.82;;;;;;;21.22;54.49;100359.69;5106476;28;20812;-29
2022/06/17 06:05:47;;;;;;;8.35;5.32;;;;;;;21.26;54.04;100355.34;5088221;28;20131;-34
2022/06/17 06:08:12;;;;;;;9.98;5.60;;;;;;;21.18;54.60;100355.94;5107084;28;20111;-29
2022/06/17 06:10:40;;;;;;;8.73;5.25;;;;;;;21.45;53.74;100365.53;5088349;28;20048;-28
2022/06/17 06:13:06;;;;;;;10.50;4.78;;;;;;;21.61;54.63;100356.16;5088177;28;20042;-36
2022/06/17 06:15:43;;;;;;;6.93;4.57;;;;;;;21.78;53.58;100360.34;5106593;28;20031;-30
2022/06/17 06:18:11;;;;;;;7.22;4.25;;;;;;;21.88;51.75;100346.66;5088183;28;20030;-30
2022/06/17 06:20:37;;;;;;;7.50;4.05;;;;;;;22.29;49.68;100361.72;5087885;28;20023;-29
2022/06/17 06:23:02;;;;;;;9.98;4.75;;;;;;;22.14;50.11;100339.06;5087804;28;20023;-28
2022/06/17 06:25:28;;;;;;;9.77;3.92;;;;;;;22.10;51.06;100353.50;5088159;28;20023;-28
2022/06/17 06:27:54;;;;;;;10.23;6.78;;;;;;;22.39;49.26;100357.00;5087896;28;20042;-36
2022/06/17 06:30:23;;;;;;;18.67;10.25;;;;;;;22.64;50.36;100355.88;5087951;28;20032;-32
2022/06/17 06:32:51;;;;;;;93.13;58.47;;;;;;;22.79;49.48;100346.69;5106310;28;20027;-32
2022/06/17 06:35:18;;;;;;;16.08;8.80;;;;;;;22.75;48.68;100333.97;5087489;28;20115;-32
2022/06/17 06:37:43;;;;;;;32.67;22.15;;;;;;;22.96;50.50;100345.34;5087763;28;20059;-28
2022/06/17 06:40:10;;;;;;;6.65;3.80;;;;;;;22.93;49.31;100351.41;5106456;28;20023;-30
2022/06/17 06:42:36;;;;;;;6.03;2.93;;;;;;;22.91;46.51;100331.84;5087517;28;20038;-31
2022/06/17 06:45:01;;;;;;;5.78;3.20;;;;;;;22.72;48.38;100332.66;5087666;28;20032;-28
2022/06/17 06:47:28;;;;;;;23.15;4.38;;;;;;;22.84;48.67;100341.19;5106201;28;20035;-29
2022/06/17 06:49:53;;;;;;;8.20;3.70;;;;;;;22.89;49.33;100326.69;5087733;28;20019;-29
2022/06/17 06:52:18;;;;;;;8.98;3.60;;;;;;;22.76;51.22;100332.84;5106449;28;20109;-30
2022/06/17 06:54:44;;;;;;;6.68;3.53;;;;;;;22.99;48.32;100320.28;5106263;28;20036;-29
2022/06/17 06:57:10;;;;;;;7.63;3.60;;;;;;;23.21;47.87;100334.13;5106109;28;20034;-31
2022/06/17 06:59:36;;;;;;;8.23;4.00;;;;;;;23.36;47.85;100329.53;5106306;28;20028;-29
2022/06/17 07:02:02;;;;;;;6.68;3.65;;;;;;;23.14;47.63;100311.09;5087671;28;20100;-28
2022/06/17 07:04:28;;;;;;;7.30;4.10;;;;;;;23.45;49.20;100316.84;5087352;28;20040;-32
2022/06/17 07:06:54;;;;;;;6.97;4.25;;;;;;;23.35;48.81;100301.50;5105969;28;20499;-34
2022/06/17 07:09:21;;;;;;;8.82;4.03;;;;;;;23.29;49.87;100291.00;5105729;28;20020;-31
2022/06/17 07:11:46;;;;;;;8.48;4.03;;;;;;;23.43;47.77;100305.44;5106623;28;20066;-29
2022/06/17 07:14:12;;;;;;;6.68;3.97;;;;;;;23.37;48.64;100290.31;5105927;28;20068;-33
2022/06/17 07:16:37;;;;;;;11.85;6.57;;;;;;;23.39;50.12;100274.50;5105882;28;20051;-29
2022/06/17 07:19:07;;;;;;;9.45;5.07;;;;;;;23.54;51.31;100267.94;5105697;28;20483;-29
2022/06/17 07:21:33;;;;;;;8.55;4.40;;;;;;;23.80;48.11;100262.88;5087425;28;20062;-29
2022/06/17 07:23:59;;;;;;;7.70;4.10;;;;;;;23.67;49.30;100270.69;5087538;28;20028;-29
2022/06/17 07:26:25;;;;;;;6.25;4.22;;;;;;;24.05;49.20;100277.91;5105415;28;20031;-28
2022/06/17 07:28:52;;;;;;;6.63;4.20;;;;;;;24.04;48.04;100277.06;5070900;28;20050;-29
2022/06/17 07:31:18;;;;;;;9.30;5.40;;;;;;;24.04;48.66;100263.44;5087392;28;20407;-30
2022/06/17 07:33:43;;;;;;;18.48;14.13;;;;;;;24.54;47.82;100261.88;5105993;28;20046;-28
2022/06/17 07:41:43;;;;;;;7.85;4.85;;;;;;;24.95;47.70;100266.38;5107162;28;20054;-28
2022/06/17 07:44:09;;;;;;;7.88;4.22;;;;;;;24.98;46.11;100273.94;5090987;28;20024;-28
2022/06/17 07:46:35;;;;;;;12.02;6.22;;;;;;;24.86;47.53;100252.66;5109782;28;20080;-28
2022/06/17 07:49:01;;;;;;;6.43;5.00;;;;;;;25.13;48.48;100270.84;5090994;28;20038;-32
2022/06/17 07:51:27;;;;;;;6.22;4.25;;;;;;;24.82;47.21;100249.75;5109419;28;20034;-29
2022/06/17 07:53:52;;;;;;;6.53;4.22;;;;;;;24.98;48.93;100265.75;5090856;28;20088;-31
2022/06/17 07:56:20;;;;;;;7.80;4.70;;;;;;;25.33;50.04;100263.25;5090527;28;20028;-28
2022/06/17 07:58:46;;;;;;;9.20;4.57;;;;;;;25.44;47.26;100249.03;5109077;28;20027;-28
2022/06/17 08:01:13;;;;;;;6.75;4.80;;;;;;;25.21;47.89;100259.19;5090517;28;20040;-31
2022/06/17 08:03:39;;;;;;;6.57;4.73;;;;;;;25.15;47.65;100263.16;5090571;28;20054;-29
2022/06/17 08:06:04;;;;;;;7.50;4.80;;;;;;;25.15;50.15;100248.66;5090640;28;20269;-28
2022/06/17 08:08:30;;;;;;;6.88;4.78;;;;;;;25.49;48.13;100258.22;5109061;28;20449;-32
2022/06/17 08:10:58;;;;;;;8.18;4.82;;;;;;;25.60;47.71;100243.97;5108992;28;20035;-30
2022/06/17 08:13:23;;;;;;;;;;;;;;;25.66;46.16;100250.91;5108881;28;20023;-30
2022/06/17 08:15:52;;;;;;;7.35;4.82;;;;;;;25.71;47.04;100246.41;5109078;28;19919;-31
2022/06/17 08:18:17;;;;;;;7.88;4.78;;;;;;;26.06;45.34;100242.66;5090585;28;20031;-28
2022/06/17 08:20:43;;;;;;;6.68;4.95;;;;;;;26.35;45.86;100244.00;5108877;28;20055;-32
2022/06/17 08:23:10;;;;;;;8.15;4.90;;;;;;;26.05;44.21;100256.66;5108706;28;20032;-28
2022/06/17 08:25:37;;;;;;;6.18;4.80;;;;;;;26.11;44.34;100240.91;5090273;28;20035;-29
2022/06/17 08:28:05;;;;;;;6.20;4.78;;;;;;;25.94;43.65;100256.16;5090214;28;20058;-30
2022/06/17 08:30:36;;;;;;;8.43;5.45;;;;;;;26.08;44.62;100227.91;5090431;28;20466;-30
2022/06/17 08:33:03;;;;;;;7.35;5.07;;;;;;;26.37;44.30;100222.59;5090493;28;20023;-29
2022/06/17 08:35:30;;;;;;;9.13;4.67;;;;;;;26.64;43.29;100251.59;5090153;28;20035;-32
2022/06/17 08:38:12;;;;;;;7.35;4.75;;;;;;;27.09;41.98;100255.88;5108711;28;20250;-28
2022/06/17 08:41:04;;;;;;;8.00;5.07;;;;;;;27.31;42.23;100251.34;5089593;28;20567;-28
2022/06/17 08:44:00;;;;;;;6.65;4.72;;;;;;;27.07;40.55;100247.19;5090000;28;20041;-29
2022/06/17 08:46:44;;;;;;;6.82;5.07;;;;;;;27.02;42.40;100239.16;5089886;28;20031;-31
2022/06/17 08:49:37;;;;;;;6.70;4.72;;;;;;;27.26;41.37;100244.13;5108147;28;20503;-29
2022/06/17 08:52:11;;;;;;;6.85;4.38;;;;;;;27.52;41.09;100232.25;5108093;28;20036;-30
2022/06/17 08:55:00;;;;;;;7.07;4.80;;;;;;;27.27;40.54;100223.03;5088637;28;20027;-31
2022/06/17 08:57:30;;;;;;;6.70;5.40;;;;;;;27.48;40.87;100234.84;5108233;28;20074;-31
2022/06/17 09:00:11;;;;;;;7.80;5.40;;;;;;;27.75;40.82;100238.28;5108148;28;20046;-29
2022/06/17 09:02:39;;;;;;;5.70;4.47;;;;;;;27.79;41.62;100236.50;5089419;28;20480;-29
2022/06/17 09:05:23;;;;;;;5.63;4.35;;;;;;;27.81;39.46;100221.31;5107469;28;20081;-31
2022/06/17 09:08:00;;;;;;;6.60;4.57;;;;;;;28.07;38.83;100239.56;5107961;28;20035;-31
2022/06/17 09:10:31;;;;;;;6.93;4.88;;;;;;;28.20;37.48;100246.75;5107957;28;20031;-29
2022/06/17 09:12:59;;;;;;;6.90;4.35;;;;;;;28.13;38.29;100242.91;5107981;28;20024;-28
2022/06/17 09:15:49;;;;;;;5.95;5.00;;;;;;;28.62;38.75;100235.78;5107568;28;20031;-31
2022/06/17 09:18:29;;;;;;;6.75;4.40;;;;;;;28.36;39.91;100213.22;5089453;28;20074;-31
2022/06/17 09:21:20;;;;;;;6.40;4.75;;;;;;;28.89;39.97;100235.53;5089276;28;20042;-34
2022/06/17 09:23:46;;;;;;;6.35;4.43;;;;;;;28.38;38.95;100211.78;5089107;28;20527;-31
2022/06/17 09:26:28;;;;;;;6.13;3.97;;;;;;;28.74;39.14;100217.78;5088775;28;20031;-31
2022/06/17 09:29:06;;;;;;;6.55;4.43;;;;;;;28.89;36.54;100225.38;5089248;28;20027;-29
2022/06/17 09:31:38;;;;;;;6.07;4.28;;;;;;;28.92;36.95;100229.38;5089048;28;20536;-29
2022/06/17 09:34:35;;;;;;;5.47;4.10;;;;;;;29.27;36.58;100223.53;5107421;28;20027;-29
2022/06/17 09:37:13;;;;;;;6.95;3.70;;;;;;;29.58;37.31;100215.53;5089010;28;20053;-31
2022/06/17 09:39:55;;;;;;;7.53;4.78;;;;;;;29.44;37.70;100218.63;5073284;28;20039;-28
2022/06/17 09:42:32;;;;;;;5.20;4.10;;;;;;;29.83;36.47;100223.78;5107409;28;20015;-29
2022/06/17 09:45:10;;;;;;;5.80;4.15;;;;;;;29.70;35.36;100208.44;5088736;28;20123;-30
2022/06/17 09:47:38;;;;;;;7.32;4.00;;;;;;;29.71;37.25;100210.06;5088854;28;20039;-30
2022/06/17 09:50:14;;;;;;;6.45;4.25;;;;;;;29.58;36.63;100190.81;5107201;28;20088;-31
2022/06/17 09:52:46;;;;;;;6.78;4.07;;;;;;;30.14;35.24;100205.88;5088482;28;20119;-29
2022/06/17 09:55:16;;;;;;;8.35;4.50;;;;;;;30.46;37.89;100195.81;5088213;28;20114;-33
2022/06/17 09:57:55;;;;;;;4.70;3.50;;;;;;;30.53;32.98;100192.50;5088353;28;20028;-29
2022/06/17 10:00:25;;;;;;;7.88;3.83;;;;;;;30.62;35.67;100193.91;5088528;28;20581;-32
2022/06/17 10:02:52;;;;;;;7.13;4.07;;;;;;;30.63;34.24;100198.28;5088254;28;20493;-30
2022/06/17 10:05:36;;;;;;;;;;;;;;;30.64;34.01;100197.13;5106933;28;20151;-33
2022/06/17 10:08:15;;;;;;;5.93;3.72;;;;;;;30.39;35.43;100196.44;5106517;28;19962;-34
2022/06/17 10:10:59;;;;;;;5.15;3.05;;;;;;;30.49;33.61;100188.84;5106877;28;20020;-31
2022/06/17 10:14:00;;;;;;;6.18;3.63;;;;;;;30.38;35.43;100188.53;5087943;28;20057;-31
2022/06/17 10:19:28;;;;;;;;;;;;;;;29.80;35.26;100169.53;5107107;28;20038;-31
2022/06/17 10:22:06;;;;;;;9.73;3.85;;;;;;;30.00;36.06;100179.56;5106621;28;20789;-28
2022/06/17 10:24:45;;;;;;;5.88;2.90;;;;;;;30.10;36.55;100171.97;5088037;28;20028;-31
2022/06/17 10:27:38;;;;;;;4.22;3.42;;;;;;;30.56;34.58;100167.00;5106355;28;20793;-31
2022/06/17 10:30:05;;;;;;;4.63;3.20;;;;;;;30.43;35.14;100167.06;5087909;28;20031;-29
2022/06/17 10:32:36;;;;;;;4.07;3.03;;;;;;;30.36;32.86;100150.38;5087815;28;20570;-34
2022/06/17 10:35:04;;;;;;;6.20;3.03;;;;;;;30.33;33.56;100162.06;5087337;28;20509;-29
2022/06/17 10:37:34;;;;;;;4.65;2.88;;;;;;;30.54;32.42;100158.31;5087796;28;20035;-34
2022/06/17 10:40:01;;;;;;;4.20;2.67;;;;;;;30.49;34.20;100145.59;5087733;28;20031;-29
2022/06/17 10:42:28;;;;;;;3.90;3.17;;;;;;;30.56;33.75;100150.50;5087954;28;20093;-31
2022/06/17 10:44:59;;;;;;;5.53;3.33;;;;;;;30.55;30.03;100133.19;5087704;28;20510;-29
2022/06/17 10:47:32;;;;;;;6.50;3.30;;;;;;;30.97;32.97;100145.69;5087344;28;20038;-32
2022/06/17 10:50:01;;;;;;;4.90;3.10;;;;;;;31.38;32.97;100146.28;5087853;28;20028;-31
2022/06/17 10:52:34;;;;;;;5.82;2.97;;;;;;;32.03;31.95;100159.59;5106009;28;20083;-35
2022/06/17 10:55:03;;;;;;;34.95;5.05;;;;;;;31.58;30.75;100139.69;5105930;28;20024;-30
2022/06/17 10:57:37;;;;;;;4.93;3.30;;;;;;;31.66;33.17;100146.19;5106059;28;20023;-29
2022/06/17 11:00:24;;;;;;;6.45;3.40;;;;;;;31.36;31.30;100130.09;5106004;28;20030;-31
2022/06/17 11:02:50;;;;;;;4.97;3.28;;;;;;;31.19;31.52;100117.50;5087804;28;20038;-33
2022/06/17 11:05:31;;;;;;;6.65;3.83;;;;;;;31.31;32.38;100135.91;5105858;28;20051;-29
2022/06/17 11:07:57;;;;;;;7.97;3.70;;;;;;;31.61;30.69;100144.50;5087909;28;20024;-30
2022/06/17 11:10:26;;;;;;;9.38;3.20;;;;;;;32.47;30.48;100134.47;5106047;28;20028;-33
2022/06/17 11:13:06;;;;;;;4.75;3.33;;;;;;;32.38;30.25;100112.59;5087754;28;20033;-33
2022/06/17 11:15:57;;;;;;;4.80;3.40;;;;;;;32.33;32.53;100125.91;5106166;28;20035;-34
2022/06/17 11:18:26;;;;;;;6.95;3.40;;;;;;;32.07;29.71;100121.06;5091927;28;20506;-33
2022/06/17 11:21:21;;;;;;;5.40;3.50;;;;;;;32.39;31.97;100121.69;5091620;28;20057;-29
2022/06/17 11:23:51;;;;;;;6.00;3.72;;;;;;;32.81;30.89;100121.69;5109591;28;20700;-33
2022/06/17 11:26:19;;;;;;;7.03;3.55;;;;;;;33.43;29.00;100117.97;5109991;28;20556;-29
2022/06/17 11:28:48;;;;;;;4.15;3.65;;;;;;;33.45;29.65;100106.50;5109944;28;20029;-30
2022/06/17 11:31:21;;;;;;;6.15;3.40;;;;;;;33.36;28.10;100098.50;5091063;28;20074;-31
2022/06/17 11:33:53;;;;;;;4.85;3.60;;;;;;;33.49;29.08;100121.19;5091302;28;20589;-32
2022/06/17 11:36:20;;;;;;;5.55;3.70;;;;;;;33.48;28.93;100108.53;5109614;28;20085;-31
2022/06/17 11:38:46;;;;;;;5.45;4.03;;;;;;;32.88;29.17;100087.09;5091176;28;20035;-31
2022/06/17 11:41:23;;;;;;;7.00;4.28;;;;;;;32.95;30.03;100096.25;5090908;28;20663;-35
2022/06/17 11:43:49;;;;;;;;;;;;;;;33.17;29.62;100102.97;5091377;28;20557;-30
2022/06/17 11:46:16;;;;;;;7.15;4.18;;;;;;;33.32;29.10;100103.19;5109778;28;19907;-30
2022/06/17 11:48:57;;;;;;;6.35;3.88;;;;;;;33.11;29.38;100096.16;5091158;28;20031;-33
2022/06/17 11:51:29;;;;;;;7.90;4.35;;;;;;;32.92;30.08;100082.41;5090639;28;20414;-30
2022/06/17 11:53:57;;;;;;;5.60;4.00;;;;;;;33.08;29.66;100096.91;5090897;28;20058;-32
2022/06/17 11:56:33;;;;;;;6.22;3.88;;;;;;;32.96;28.73;100097.09;5090745;28;20031;-32